Time;durP1;ratioP1;P1;durP2;ratioP2;P2;SDS_P1;SDS_P2;PMS_P1;PMS_P2;Temp;Humidity;BMP_temperature;BMP_pressure;BME280_temperature;BME280_humidity;BME280_pressure;Samples;Min_cycle;Max_cycle;Signal;HPM_P1;HPM_P2
2021/03/01 00:00:24;;;;;;;157.35;74.55;;;26.40;2201.60;;;;;;5124127;27;20089;-71
2021/03/01 00:02:50;;;;;;;176.85;77.70;;;26.40;2201.60;;;;;;5117359;27;20472;-71
2021/03/01 00:05:16;;;;;;;234.65;102.45;;;26.30;2201.60;;;;;;5114491;28;20353;-70
2021/03/01 00:07:43;;;;;;;223.57;98.82;;;26.30;2201.60;;;;;;5117313;27;20040;-72
2021/03/01 00:10:10;;;;;;;225.25;98.75;;;26.20;2201.60;;;;;;5103910;28;20024;-72
2021/03/01 00:12:36;;;;;;;189.95;82.63;;;26.20;2201.60;;;;;;5113680;27;20020;-71
2021/03/01 00:15:06;;;;;;;169.95;76.88;;;26.10;2201.60;;;;;;5106148;28;20023;-71
2021/03/01 00:17:32;;;;;;;169.73;78.13;;;26.10;2201.60;;;;;;5104391;28;20015;-71
2021/03/01 00:19:58;;;;;;;167.18;77.03;;;26.00;2201.60;;;;;;5113786;27;20032;-71
2021/03/01 00:22:23;;;;;;;121.53;55.72;;;25.90;2201.60;;;;;;5131446;27;20034;-73
2021/03/01 00:24:49;;;;;;;124.55;56.30;;;25.80;2201.60;;;;;;5129592;27;20030;-71
2021/03/01 00:27:15;;;;;;;102.20;48.95;;;25.70;2201.60;;;;;;5131253;27;20027;-72
2021/03/01 00:29:40;;;;;;;114.82;52.50;;;25.70;2201.60;;;;;;5128992;27;20019;-70
2021/03/01 00:32:06;;;;;;;110.50;51.72;;;25.70;2201.60;;;;;;5127464;27;20035;-70
2021/03/01 00:34:32;;;;;;;104.70;47.65;;;0.90;2201.60;;;;;;5132085;27;20095;-68
2021/03/01 00:36:58;;;;;;;94.88;45.45;;;0.80;2201.60;;;;;;5130173;27;20027;-70
2021/03/01 00:39:24;;;;;;;97.10;47.05;;;0.80;2201.60;;;;;;5130380;27;20510;-72
2021/03/01 00:41:49;;;;;;;96.60;44.20;;;0.70;2201.60;;;;;;5131390;27;20031;-74
2021/03/01 00:44:16;;;;;;;96.45;46.38;;;0.70;2201.60;;;;;;5132830;27;20479;-72
2021/03/01 00:46:42;;;;;;;103.78;47.85;;;0.70;2201.60;;;;;;5128589;27;20030;-72
2021/03/01 00:49:07;;;;;;;111.45;50.38;;;0.70;2201.60;;;;;;5130654;27;20023;-72
2021/03/01 00:51:33;;;;;;;118.50;55.47;;;0.70;2201.60;;;;;;5124936;27;20041;-71
2021/03/01 00:53:59;;;;;;;135.55;59.80;;;0.70;2201.60;;;;;;5128016;27;20023;-72
2021/03/01 00:56:25;;;;;;;126.43;54.92;;;0.70;2201.60;;;;;;5127178;27;20019;-74
2021/03/01 00:58:50;;;;;;;127.20;56.42;;;0.70;2201.60;;;;;;5130468;27;20035;-71
2021/03/01 01:01:16;;;;;;;111.93;50.30;;;0.70;2201.60;;;;;;5129476;27;20015;-71
2021/03/01 01:03:42;;;;;;;102.55;48.13;;;0.60;2201.60;;;;;;5132143;27;20039;-71
2021/03/01 01:06:08;;;;;;;95.70;47.80;;;0.50;2201.60;;;;;;5128659;27;20102;-71
2021/03/01 01:08:33;;;;;;;99.75;46.50;;;0.40;2201.60;;;;;;5128796;27;20031;-71
2021/03/01 01:10:59;;;;;;;96.63;44.75;;;0.10;2201.60;;;;;;5110645;27;20380;-72
2021/03/01 01:13:25;;;;;;;102.10;47.00;;;12.90;2201.60;;;;;;5111494;28;20103;-71
2021/03/01 01:15:51;;;;;;;97.75;44.92;;;13.00;2201.60;;;;;;5110420;28;20464;-71
2021/03/01 01:18:16;;;;;;;82.53;42.03;;;13.00;2201.60;;;;;;5112655;28;20040;-75
2021/03/01 01:20:42;;;;;;;82.90;40.38;;;13.00;2201.60;;;;;;5092629;28;20028;-71
2021/03/01 01:23:08;;;;;;;90.60;43.08;;;13.00;2201.60;;;;;;5112595;28;20027;-71
2021/03/01 01:25:34;;;;;;;80.22;39.20;;;13.00;2201.60;;;;;;5113194;28;20023;-72
2021/03/01 01:28:00;;;;;;;79.32;38.30;;;13.10;2201.60;;;;;;5112545;28;20019;-71
2021/03/01 01:30:26;;;;;;;63.05;33.40;;;13.10;2201.60;;;;;;5112134;28;20388;-71
2021/03/01 01:32:53;;;;;;;71.75;33.92;;;13.10;2201.60;;;;;;5112769;28;20047;-71
2021/03/01 01:35:19;;;;;;;60.38;32.25;;;13.10;2201.60;;;;;;5112458;28;20030;-71
2021/03/01 01:37:46;;;;;;;59.60;31.48;;;13.10;2201.60;;;;;;5112682;28;20024;-71
2021/03/01 01:40:15;;;;;;;58.78;30.85;;;13.10;2201.60;;;;;;5112242;28;20387;-71
2021/03/01 01:42:42;;;;;;;59.85;31.10;;;13.20;2201.60;;;;;;5112483;28;20027;-73
2021/03/01 01:45:12;;;;;;;62.75;31.63;;;13.20;2201.60;;;;;;5112256;28;20028;-72
2021/03/01 01:47:38;;;;;;;60.72;30.05;;;13.30;2201.60;;;;;;5111484;28;20032;-72
2021/03/01 01:50:06;;;;;;;55.28;28.75;;;13.30;2201.60;;;;;;5111844;28;20043;-72
2021/03/01 01:52:31;;;;;;;56.85;29.13;;;13.30;2201.60;;;;;;5111974;28;20378;-74
2021/03/01 01:54:58;;;;;;;53.10;27.95;;;13.30;2201.60;;;;;;5112115;28;20102;-72
2021/03/01 01:57:24;;;;;;;62.08;30.45;;;13.30;2201.60;;;;;;5111791;28;20055;-71
2021/03/01 01:59:50;;;;;;;68.38;32.33;;;13.30;2201.60;;;;;;5110770;28;20035;-71
2021/03/01 02:02:18;;;;;;;63.28;31.80;;;13.20;2201.60;;;;;;5112102;28;20108;-71
2021/03/01 02:04:53;;;;;;;68.00;32.75;;;13.20;2201.60;;;;;;5112016;28;20054;-72
2021/03/01 02:07:50;;;;;;;70.00;34.00;;;13.20;2201.60;;;;;;5111567;28;20026;-72
2021/03/01 02:10:43;;;;;;;64.88;32.28;;;13.20;2201.60;;;;;;5109373;28;20406;-71
2021/03/01 02:13:36;;;;;;;64.53;31.80;;;13.20;2201.60;;;;;;5101093;28;20111;-72
2021/03/01 02:16:06;;;;;;;85.03;39.25;;;13.20;2201.60;;;;;;5110868;28;20015;-71
2021/03/01 02:18:32;;;;;;;;;;;13.20;2201.60;;;;;;5112002;28;20073;-71
2021/03/01 02:21:11;;;;;;;76.25;34.35;;;13.20;2201.60;;;;;;5111415;28;19908;-72
2021/03/01 02:23:38;;;;;;;86.03;39.90;;;13.30;2201.60;;;;;;5093413;28;20024;-72
2021/03/01 02:26:09;;;;;;;84.38;38.03;;;13.20;2201.60;;;;;;5111548;28;20046;-72
2021/03/01 02:28:41;;;;;;;74.32;34.47;;;13.20;2201.60;;;;;;5111352;28;20028;-71
2021/03/01 02:31:09;;;;;;;72.15;33.95;;;13.20;2201.60;;;;;;5111291;28;20019;-72
2021/03/01 02:33:43;;;;;;;69.68;33.30;;;13.20;2201.60;;;;;;5111697;28;20434;-72
2021/03/01 02:36:21;;;;;;;65.60;31.83;;;13.30;2201.60;;;;;;5118089;27;20051;-71
2021/03/01 02:38:49;;;;;;;63.72;31.85;;;13.20;2201.60;;;;;;5110675;28;20502;-72
2021/03/01 02:41:17;;;;;;;66.18;33.70;;;13.20;2201.60;;;;;;5111335;28;20034;-71
2021/03/01 02:43:43;;;;;;;64.80;32.55;;;13.20;2201.60;;;;;;5111204;28;20069;-72
2021/03/01 02:46:11;;;;;;;74.47;34.97;;;13.20;2201.60;;;;;;5110760;28;20045;-72
2021/03/01 02:48:39;;;;;;;68.40;34.40;;;13.30;2201.60;;;;;;5110810;28;20024;-72
2021/03/01 02:51:06;;;;;;;69.35;35.45;;;13.30;2201.60;;;;;;5111289;28;20016;-72
2021/03/01 02:53:34;;;;;;;66.95;33.70;;;13.30;2201.60;;;;;;5111189;28;20015;-71
2021/03/01 02:56:00;;;;;;;64.07;33.20;;;13.30;2201.60;;;;;;5111157;28;20064;-72
2021/03/01 02:58:29;;;;;;;64.57;33.55;;;13.30;2201.60;;;;;;5109856;28;20102;-74
2021/03/01 03:00:56;;;;;;;60.72;30.88;;;13.40;2201.60;;;;;;5079911;28;20016;-72
2021/03/01 03:03:24;;;;;;;58.25;29.58;;;13.30;2201.60;;;;;;5107990;28;20071;-71
2021/03/01 03:05:50;;;;;;;63.90;31.55;;;13.30;2201.60;;;;;;5110961;28;20028;-72
2021/03/01 03:08:17;;;;;;;62.30;31.73;;;13.30;2201.60;;;;;;5111013;28;20019;-71
2021/03/01 03:10:46;;;;;;;65.22;31.85;;;13.30;2201.60;;;;;;5108556;28;20020;-71
2021/03/01 03:13:13;;;;;;;61.63;32.05;;;13.30;2201.60;;;;;;5111075;28;20353;-71
2021/03/01 03:15:44;;;;;;;64.65;33.33;;;13.30;2201.60;;;;;;5107471;28;20024;-72
2021/03/01 03:18:14;;;;;;;65.05;33.45;;;13.30;2201.60;;;;;;5111052;28;20076;-71
2021/03/01 03:20:40;;;;;;;60.42;31.85;;;13.30;2201.60;;;;;;5110742;28;20024;-74
2021/03/01 03:23:07;;;;;;;66.07;34.20;;;13.30;2201.60;;;;;;5111071;28;20103;-73
2021/03/01 03:25:33;;;;;;;70.65;34.17;;;13.30;2201.60;;;;;;5110982;28;20239;-72
2021/03/01 03:27:58;;;;;;;58.67;31.48;;;13.30;2201.60;;;;;;5106693;28;20115;-72
2021/03/01 03:30:24;;;;;;;74.13;37.67;;;13.30;2201.60;;;;;;5090103;28;20028;-72
2021/03/01 03:32:52;;;;;;;68.70;36.13;;;13.40;2201.60;;;;;;5090523;28;20012;-72
2021/03/01 03:35:18;;;;;;;66.75;34.00;;;13.40;2201.60;;;;;;5090264;28;20392;-74
2021/03/01 03:37:54;;;;;;;64.10;33.47;;;13.40;2201.60;;;;;;5090406;28;20503;-72
2021/03/01 03:40:22;;;;;;;72.18;33.65;;;13.40;2201.60;;;;;;5090165;28;20110;-72
2021/03/01 03:42:51;;;;;;;75.68;36.20;;;13.40;2201.60;;;;;;5110909;28;20046;-73
2021/03/01 03:45:18;;;;;;;66.13;33.70;;;13.50;2201.60;;;;;;5104042;28;20031;-72
2021/03/01 03:47:45;;;;;;;65.15;33.80;;;13.50;2201.60;;;;;;5112728;28;20035;-72
2021/03/01 03:50:13;;;;;;;61.40;31.50;;;13.50;2201.60;;;;;;5110967;28;20054;-72
2021/03/01 03:52:41;;;;;;;69.35;33.70;;;13.60;2201.60;;;;;;5111083;28;20455;-72
2021/03/01 03:55:11;;;;;;;71.90;34.60;;;13.60;2201.60;;;;;;5110601;28;20012;-72
2021/03/01 03:57:37;;;;;;;71.80;34.92;;;13.60;2201.60;;;;;;5109392;28;20020;-72
2021/03/01 04:00:09;;;;;;;62.33;31.88;;;13.70;2201.60;;;;;;5107699;28;20035;-72
2021/03/01 04:02:36;;;;;;;60.38;30.90;;;13.70;2201.60;;;;;;5083758;28;20063;-72
2021/03/01 04:05:04;;;;;;;61.20;31.65;;;38.40;2201.60;;;;;;5090238;28;20078;-72
2021/03/01 04:07:32;;;;;;;64.95;33.33;;;38.50;2201.60;;;;;;5090181;28;20039;-71
2021/03/01 04:10:00;;;;;;;55.53;30.40;;;38.60;2201.60;;;;;;5091937;28;20032;-72
2021/03/01 04:12:29;;;;;;;53.88;29.80;;;38.60;2201.60;;;;;;5092661;28;20016;-72
2021/03/01 04:14:57;;;;;;;59.13;30.50;;;38.60;2201.60;;;;;;5095183;28;20561;-72
2021/03/01 04:17:23;;;;;;;55.90;28.33;;;38.70;2201.60;;;;;;5093386;28;20384;-72
2021/03/01 04:19:50;;;;;;;57.72;29.25;;;38.70;2201.60;;;;;;5093189;28;20052;-72
2021/03/01 04:22:18;;;;;;;57.50;30.02;;;38.70;2201.60;;;;;;5093651;28;20020;-72
2021/03/01 04:24:46;;;;;;;58.05;29.58;;;38.80;2201.60;;;;;;5093689;28;20511;-72
2021/03/01 04:27:13;;;;;;;54.00;29.33;;;38.90;2201.60;;;;;;5093254;28;20028;-72
2021/03/01 04:29:39;;;;;;;54.45;28.35;;;39.00;2201.60;;;;;;5093659;28;20028;-72
2021/03/01 04:32:04;;;;;;;52.95;27.83;;;38.90;2201.60;;;;;;5093368;28;20036;-72
2021/03/01 04:34:31;;;;;;;52.38;28.27;;;38.90;2201.60;;;;;;5093231;28;20431;-74
2021/03/01 04:36:57;;;;;;;56.70;28.48;;;39.00;2201.60;;;;;;5093494;28;20101;-73
2021/03/01 04:39:24;;;;;;;62.20;29.42;;;39.00;2201.60;;;;;;5092935;28;20638;-72
2021/03/01 04:41:51;;;;;;;56.60;29.15;;;39.00;2201.60;;;;;;5093302;28;20097;-72
2021/03/01 04:44:18;;;;;;;48.83;27.48;;;39.00;2201.60;;;;;;5093006;28;20140;-73
2021/03/01 04:46:47;;;;;;;51.78;28.55;;;39.00;2201.60;;;;;;5093435;28;20020;-73
2021/03/01 04:49:13;;;;;;;49.28;27.75;;;39.00;2201.60;;;;;;5092798;28;20035;-73
2021/03/01 04:51:40;;;;;;;50.30;27.05;;;39.00;2201.60;;;;;;5093065;28;20024;-73
2021/03/01 04:54:08;;;;;;;56.17;28.73;;;39.00;2201.60;;;;;;5093089;28;20469;-72
2021/03/01 04:56:34;;;;;;;54.63;28.90;;;39.00;2201.60;;;;;;5097465;28;20022;-73
2021/03/01 04:59:01;;;;;;;58.78;29.08;;;39.00;2201.60;;;;;;5102580;28;20031;-73
2021/03/01 05:01:28;;;;;;;56.30;27.60;;;39.00;2201.60;;;;;;5096501;28;20024;-73
2021/03/01 05:03:54;;;;;;;63.17;30.92;;;39.00;2201.60;;;;;;5120198;27;20475;-73
2021/03/01 05:06:21;;;;;;;54.38;28.27;;;39.00;2201.60;;;;;;5112576;28;20099;-73
2021/03/01 05:08:48;;;;;;;56.58;28.58;;;39.00;2201.60;;;;;;5112069;28;20028;-72
2021/03/01 05:11:31;;;;;;;55.22;29.25;;;39.00;2201.60;;;;;;5111540;28;20096;-72
2021/03/01 05:13:57;;;;;;;55.95;28.38;;;38.90;2201.60;;;;;;5097903;28;20469;-73
2021/03/01 05:16:24;;;;;;;64.47;29.33;;;38.90;2201.60;;;;;;5109272;28;20024;-72
2021/03/01 05:18:50;;;;;;;69.20;32.85;;;39.00;2201.60;;;;;;5112401;28;20102;-73
2021/03/01 05:21:16;;;;;;;89.53;38.50;;;39.10;2201.60;;;;;;5113005;28;20108;-73
2021/03/01 05:23:42;;;;;;;90.88;38.40;;;39.10;2201.60;;;;;;5112757;28;20475;-73
2021/03/01 05:26:07;;;;;;;80.88;33.90;;;39.00;2201.60;;;;;;5112531;28;20027;-72
2021/03/01 05:28:36;;;;;;;66.57;31.75;;;38.90;2201.60;;;;;;5112305;28;20502;-72
2021/03/01 05:31:03;;;;;;;53.05;27.52;;;38.70;2201.60;;;;;;5112518;28;20392;-72
2021/03/01 05:33:28;;;;;;;55.28;27.52;;;38.50;2201.60;;;;;;5112456;28;20016;-72
2021/03/01 05:35:54;;;;;;;47.80;26.02;;;38.40;2201.60;;;;;;5110588;28;20019;-73
2021/03/01 05:38:20;;;;;;;49.60;26.80;;;13.60;2201.60;;;;;;5092396;28;20031;-73
2021/03/01 05:40:47;;;;;;;49.08;24.83;;;13.30;2201.60;;;;;;5101653;27;20040;-74
2021/03/01 05:43:14;;;;;;;48.38;25.45;;;13.10;2201.60;;;;;;5112521;28;20042;-73
2021/03/01 05:45:41;;;;;;;53.22;27.88;;;0.10;2201.60;;;;;;5111993;28;20505;-73
2021/03/01 05:48:09;;;;;;;53.40;27.17;;;0.30;2201.60;;;;;;5112130;28;20495;-70
2021/03/01 05:50:36;;;;;;;54.80;27.33;;;0.60;2201.60;;;;;;5111843;28;20016;-70
2021/03/01 05:53:05;;;;;;;46.40;25.52;;;0.70;2201.60;;;;;;5112049;28;20035;-69
2021/03/01 05:55:31;;;;;;;170.45;76.75;;;0.90;2201.60;;;;;;5112337;28;20027;-74
2021/03/01 05:57:59;;;;;;;176.63;79.70;;;25.80;2201.60;;;;;;5111223;28;20424;-74
2021/03/01 06:00:25;;;;;;;86.72;43.38;;;26.00;2201.60;;;;;;5106863;27;20035;-73
2021/03/01 06:02:52;;;;;;;62.90;35.35;;;26.40;2201.60;;;;;;5118704;27;20063;-73
2021/03/01 06:05:18;;;;;;;118.55;62.38;;;51.40;2227.20;;;;;;5116548;27;20031;-71
2021/03/01 06:07:45;;;;;;;53.15;30.52;;;51.60;2227.20;;;;;;5121421;27;20027;-75
2021/03/01 06:10:11;;;;;;;54.92;31.35;;;51.90;2227.20;;;;;;5109007;28;20028;-70
2021/03/01 06:12:37;;;;;;;51.10;26.40;;;76.90;2176.00;;;;;;5111988;28;20023;-71
2021/03/01 06:15:04;;;;;;;43.35;25.80;;;77.10;2150.40;;;;;;5111145;28;20423;-72
2021/03/01 06:17:30;;;;;;;37.47;22.98;;;77.30;2099.20;;;;;;5111633;28;20499;-71
2021/03/01 06:20:01;;;;;;;37.70;21.33;;;77.50;2099.20;;;;;;5111372;28;20023;-72
2021/03/01 06:22:29;;;;;;;;;;;102.40;2048.00;;;;;;5112043;28;20110;-74
2021/03/01 06:25:07;;;;;;;28.35;17.90;;;102.60;2022.40;;;;;;5111793;28;19904;-74
2021/03/01 06:27:54;;;;;;;30.27;18.42;;;102.80;1996.80;;;;;;5110518;28;20016;-71
2021/03/01 06:30:34;;;;;;;31.65;19.70;;;103.10;1971.20;;;;;;5124275;27;20038;-74
2021/03/01 06:33:06;;;;;;;31.00;19.60;;;128.10;1945.60;;;;;;5121484;27;20023;-71
2021/03/01 06:35:36;;;;;;;40.35;23.60;;;128.50;1894.40;;;;;;5114060;27;20087;-72
2021/03/01 06:38:21;;;;;;;39.53;23.13;;;128.70;1868.80;;;;;;5073736;28;20039;-72
2021/03/01 06:41:05;;;;;;;34.92;21.85;;;153.80;1817.60;;;;;;5091569;28;20030;-71
2021/03/01 06:43:31;;;;;;;39.55;22.75;;;154.30;1766.40;;;;;;5096601;28;20498;-71
2021/03/01 06:46:10;;;;;;;37.60;24.63;;;154.50;1740.80;;;;;;5099315;28;20031;-71
2021/03/01 06:48:36;;;;;;;39.45;24.13;;;179.60;1689.60;;;;;;5090888;28;20051;-72
2021/03/01 06:51:03;;;;;;;42.65;25.40;;;205.20;1612.80;;;;;;5090782;28;20047;-71
2021/03/01 06:53:28;;;;;;;38.03;23.42;;;281.60;1433.60;;;;;;5091139;28;20024;-73
2021/03/01 06:55:54;;;;;;;55.55;24.40;;;333.20;1280.00;;;;;;5093994;28;20084;-71
2021/03/01 06:58:20;;;;;;;44.08;27.42;;;384.70;1126.40;;;;;;5096449;28;20364;-73
2021/03/01 07:00:46;;;;;;;45.63;28.85;;;435.30;1049.60;;;;;;5100498;28;20024;-72
2021/03/01 07:03:22;;;;;;;48.13;29.98;;;436.10;998.40;;;;;;5099337;28;20126;-71
2021/03/01 07:05:50;;;;;;;47.10;30.60;;;486.50;947.20;;;;;;5113831;28;20061;-72
2021/03/01 07:08:34;;;;;;;55.58;35.53;;;512.30;896.00;;;;;;5110756;28;20047;-72
2021/03/01 07:11:00;;;;;;;41.17;29.33;;;512.10;896.00;;;;;;5108992;28;20024;-73
2021/03/01 07:13:27;;;;;;;50.72;38.22;;;537.90;870.40;;;;;;5109594;28;20069;-72
2021/03/01 07:15:53;;;;;;;36.63;25.35;;;588.90;819.20;;;;;;5100487;28;20028;-72
2021/03/01 07:18:20;;;;;;;40.35;25.27;;;614.90;768.00;;;;;;5117799;28;20023;-71
2021/03/01 07:20:47;;;;;;;38.35;27.00;;;640.20;716.80;;;;;;5119257;28;20502;-73
2021/03/01 07:23:14;;;;;;;40.50;28.23;;;640.70;716.80;;;;;;5126839;28;20031;-70
2021/03/01 07:25:42;;;;;;;39.15;29.45;;;666.00;742.40;;;;;;5128014;28;20019;-72
2021/03/01 07:28:08;;;;;;;45.08;33.10;;;691.50;691.20;;;;;;5129704;28;20019;-72
2021/03/01 07:30:36;;;;;;;47.85;34.50;;;717.10;691.20;;;;;;5125662;28;20045;-71
2021/03/01 07:33:03;;;;;;;49.08;38.00;;;716.80;691.20;;;;;;5110731;28;20054;-72
2021/03/01 07:35:29;;;;;;;64.07;45.58;;;615.00;742.40;;;;;;5118802;28;20082;-73
2021/03/01 07:37:55;;;;;;;59.90;44.42;;;589.00;768.00;;;;;;5128040;28;20023;-71
2021/03/01 07:40:21;;;;;;;58.33;42.90;;;512.70;844.80;;;;;;5130186;28;20023;-72
2021/03/01 07:42:46;;;;;;;55.50;41.80;;;486.80;896.00;;;;;;5128510;28;20368;-73
2021/03/01 07:45:12;;;;;;;59.67;40.85;;;461.10;947.20;;;;;;5125112;27;20039;-73
2021/03/01 07:47:38;;;;;;;56.97;39.00;;;435.30;998.40;;;;;;5131502;27;20022;-73
2021/03/01 07:50:04;;;;;;;47.25;33.83;;;410.10;1024.00;;;;;;5130898;27;20555;-74
2021/03/01 07:52:31;;;;;;;48.63;33.95;;;409.90;1049.60;;;;;;5125160;27;20022;-73
2021/03/01 07:55:03;;;;;;;44.35;32.33;;;409.90;1049.60;;;;;;5127365;27;20051;-73
2021/03/01 07:57:30;;;;;;;41.95;30.48;;;486.80;947.20;;;;;;5131883;27;20475;-73
2021/03/01 07:59:58;;;;;;;40.58;28.25;;;512.10;896.00;;;;;;5132329;27;20111;-74
2021/03/01 08:02:32;;;;;;;40.97;28.17;;;538.30;870.40;;;;;;5133141;27;20243;-72
2021/03/01 08:04:59;;;;;;;39.22;28.40;;;563.70;844.80;;;;;;5128033;27;20050;-73
2021/03/01 08:07:42;;;;;;;36.40;27.05;;;537.90;870.40;;;;;;5131561;27;20556;-74
2021/03/01 08:10:16;;;;;;;35.33;25.75;;;461.70;947.20;;;;;;5116512;27;20055;-70
2021/03/01 08:12:42;;;;;;;36.60;24.83;;;410.20;1049.60;;;;;;5126461;27;20019;-72
2021/03/01 08:15:09;;;;;;;38.15;23.05;;;384.90;1075.20;;;;;;5104064;27;20028;-72
2021/03/01 08:17:39;;;;;;;33.95;23.52;;;384.60;1100.80;;;;;;5113590;28;20016;-73
2021/03/01 08:20:05;;;;;;;29.70;22.23;;;384.90;1075.20;;;;;;5113102;28;20019;-75
2021/03/01 08:22:31;;;;;;;34.60;23.52;;;384.60;1100.80;;;;;;5113697;28;20681;-75
2021/03/01 08:24:57;;;;;;;30.80;22.60;;;384.60;1126.40;;;;;;5113731;28;20110;-73
2021/03/01 08:27:26;;;;;;;34.20;22.00;;;384.20;1126.40;;;;;;5113609;28;20034;-73
2021/03/01 08:30:46;;;;;;;40.80;26.15;;;409.70;1126.40;;;;;;5113641;28;20387;-73
2021/03/01 08:33:11;;;;;;;32.47;23.10;;;435.90;1024.00;;;;;;5011903;28;20080;-73
2021/03/01 08:35:48;;;;;;;37.60;25.83;;;435.60;1024.00;;;;;;5080387;28;20624;-73
2021/03/01 08:38:36;;;;;;;30.92;22.77;;;435.30;1075.20;;;;;;5093257;28;20035;-72
2021/03/01 08:41:03;;;;;;;43.13;24.40;;;435.40;1075.20;;;;;;5075421;28;20027;-73
2021/03/01 08:43:48;;;;;;;56.55;30.63;;;436.00;1024.00;;;;;;5093462;28;20028;-72
2021/03/01 08:46:14;;;;;;;36.88;24.88;;;436.10;1049.60;;;;;;5092809;28;20020;-72
2021/03/01 08:48:44;;;;;;;41.28;26.63;;;435.80;1049.60;;;;;;5093003;28;20057;-72
2021/03/01 08:51:11;;;;;;;37.03;24.17;;;486.40;972.80;;;;;;5092967;28;20039;-76
2021/03/01 08:53:37;;;;;;;42.67;25.90;;;563.20;896.00;;;;;;5092820;28;20039;-73
2021/03/01 08:56:04;;;;;;;39.17;26.23;;;538.40;896.00;;;;;;5098929;28;20049;-72
2021/03/01 08:58:35;;;;;;;40.38;24.98;;;538.40;870.40;;;;;;5097961;28;20083;-73
2021/03/01 09:01:06;;;;;;;39.33;24.38;;;665.90;742.40;;;;;;5100810;28;20024;-74
2021/03/01 09:03:34;;;;;;;36.88;25.73;;;742.40;716.80;;;;;;5101481;27;20049;-76
2021/03/01 09:06:07;;;;;;;43.80;29.80;;;743.30;716.80;;;;;;5125894;27;20168;-73
2021/03/01 09:08:38;;;;;;;36.35;25.48;;;793.60;691.20;;;;;;5114248;27;20012;-73
2021/03/01 09:11:11;;;;;;;36.85;27.48;;;819.80;640.00;;;;;;5110517;27;20361;-71
2021/03/01 09:13:37;;;;;;;35.97;29.13;;;820.10;614.40;;;;;;5111387;27;20515;-72
2021/03/01 09:16:05;;;;;;;35.03;26.63;;;871.30;588.80;;;;;;5111821;27;20031;-72
2021/03/01 09:18:32;;;;;;;47.38;24.85;;;947.80;537.60;;;;;;5130046;27;20042;-72
2021/03/01 09:20:58;;;;;;;32.38;24.10;;;999.30;537.60;;;;;;5124205;27;20020;-73
2021/03/01 09:23:49;;;;;;;29.73;22.02;;;1050.40;512.00;;;;;;5129374;27;20034;-73
2021/03/01 09:26:25;;;;;;;28.00;21.58;;;1075.30;486.40;;;;;;5122893;27;20031;-74
2021/03/01 09:28:53;;;;;;;25.25;20.25;;;1101.40;486.40;;;;;;5112250;28;20428;-74
2021/03/01 09:31:20;;;;;;;31.55;20.70;;;1126.80;486.40;;;;;;5112808;28;20384;-71
2021/03/01 09:33:46;;;;;;;25.30;20.25;;;1152.00;460.80;;;;;;5112507;28;20484;-73
2021/03/01 09:36:13;;;;;;;25.90;17.67;;;1152.70;460.80;;;;;;5108259;28;20072;-73
2021/03/01 09:38:40;;;;;;;25.02;19.08;;;1152.10;460.80;;;;;;5091753;28;20020;-73
2021/03/01 09:41:11;;;;;;;25.67;21.33;;;1152.20;460.80;;;;;;5092436;28;20028;-70
2021/03/01 09:43:38;;;;;;;25.80;20.58;;;1177.70;435.20;;;;;;5129212;27;20046;-73
2021/03/01 09:46:06;;;;;;;33.65;18.85;;;1126.80;486.40;;;;;;5130083;27;20015;-73
2021/03/01 09:48:41;;;;;;;23.80;17.50;;;1101.30;486.40;;;;;;5124947;27;20112;-72
2021/03/01 09:51:08;;;;;;;22.83;19.08;;;1152.60;460.80;;;;;;5118059;27;20046;-76
2021/03/01 09:53:35;;;;;;;20.27;16.70;;;1178.00;435.20;;;;;;5128758;27;20019;-72
2021/03/01 09:56:02;;;;;;;22.92;18.73;;;1101.50;460.80;;;;;;5128287;27;20019;-73
2021/03/01 09:58:40;;;;;;;21.05;17.58;;;1024.90;486.40;;;;;;5126954;27;20015;-71
2021/03/01 10:01:13;;;;;;;23.42;19.80;;;1075.70;460.80;;;;;;5130932;27;20023;-73
2021/03/01 10:03:40;;;;;;;24.77;21.70;;;1126.50;486.40;;;;;;5131705;27;20046;-73
2021/03/01 10:06:07;;;;;;;27.77;23.10;;;1152.00;460.80;;;;;;5124437;27;20023;-73
2021/03/01 10:08:34;;;;;;;25.83;22.77;;;1152.70;435.20;;;;;;5127122;27;20053;-79
2021/03/01 10:11:00;;;;;;;25.77;20.70;;;1152.50;460.80;;;;;;5124658;27;20023;-75
2021/03/01 10:13:32;;;;;;;22.73;18.42;;;1178.20;435.20;;;;;;5128358;27;20421;-83
2021/03/01 10:15:59;;;;;;;19.00;16.10;;;1152.70;460.80;;;;;;5131433;27;20034;-80
2021/03/01 10:18:30;;;;;;;21.02;17.80;;;1127.10;460.80;;;;;;5131369;27;20380;-79
2021/03/01 10:20:59;;;;;;;22.73;18.92;;;1101.50;460.80;;;;;;5129128;27;20021;-79
2021/03/01 10:23:42;;;;;;;26.38;20.90;;;1152.20;460.80;;;;;;5128716;27;20019;-76
2021/03/01 10:26:16;;;;;;;20.13;13.27;;;1178.00;435.20;;;;;;5127901;27;20446;-72
2021/03/01 10:28:49;;;;;;;26.20;17.73;;;1203.30;435.20;;;;;;5130610;27;20027;-73
2021/03/01 10:31:17;;;;;;;18.90;14.23;;;1178.50;409.60;;;;;;5128529;27;20027;-70
2021/03/01 10:34:16;;;;;;;16.27;14.02;;;1203.70;435.20;;;;;;5127137;27;20019;-72
2021/03/01 10:37:00;;;;;;;15.80;12.93;;;1203.70;435.20;;;;;;5128322;27;20207;-73
2021/03/01 10:39:35;;;;;;;16.23;13.77;;;1203.30;435.20;;;;;;5128811;27;20074;-71
2021/03/01 10:42:12;;;;;;;19.02;15.20;;;1203.30;435.20;;;;;;5128046;27;20031;-73
2021/03/01 10:45:02;;;;;;;91.60;15.23;;;1203.60;435.20;;;;;;5127130;27;20027;-72
2021/03/01 10:47:34;;;;;;;15.57;11.90;;;1178.50;409.60;;;;;;5129594;27;20023;-73
2021/03/01 10:50:02;;;;;;;16.65;12.98;;;1204.10;435.20;;;;;;5128145;27;20027;-72
2021/03/01 10:52:28;;;;;;;15.05;10.93;;;1152.50;435.20;;;;;;5130269;27;20019;-71
2021/03/01 10:54:55;;;;;;;13.95;12.02;;;973.60;486.40;;;;;;5128188;27;20024;-73
2021/03/01 10:57:26;;;;;;;16.60;11.93;;;896.90;537.60;;;;;;5124486;27;20403;-75
2021/03/01 10:59:56;;;;;;;16.55;11.63;;;896.90;512.00;;;;;;5122149;27;20028;-74
2021/03/01 11:02:22;;;;;;;20.47;14.97;;;819.60;588.80;;;;;;5129029;27;20031;-74
2021/03/01 11:04:48;;;;;;;15.73;12.25;;;820.10;588.80;;;;;;5129617;28;20390;-74
2021/03/01 11:07:14;;;;;;;22.58;18.42;;;973.20;512.00;;;;;;5127177;28;20023;-75
2021/03/01 11:09:40;;;;;;;20.77;15.80;;;1050.30;486.40;;;;;;5125612;28;20038;-76
2021/03/01 11:12:06;;;;;;;17.80;13.05;;;1101.00;460.80;;;;;;5126848;28;20028;-72
2021/03/01 11:14:33;;;;;;;13.65;11.18;;;1101.40;435.20;;;;;;5127888;28;20023;-73
2021/03/01 11:16:58;;;;;;;13.23;11.07;;;1101.30;460.80;;;;;;5129752;28;20038;-78
2021/03/01 11:19:25;;;;;;;13.73;10.52;;;1101.60;435.20;;;;;;5127718;28;20098;-74
2021/03/01 11:21:51;;;;;;;12.35;9.05;;;1127.30;435.20;;;;;;5133316;27;20023;-74
2021/03/01 11:24:22;;;;;;;15.35;11.20;;;1152.10;435.20;;;;;;5133122;27;20031;-71
2021/03/01 11:26:51;;;;;;;12.23;8.88;;;1177.60;409.60;;;;;;5131262;27;20019;-74
2021/03/01 11:29:18;;;;;;;12.40;9.00;;;1126.90;435.20;;;;;;5125985;27;20027;-71
2021/03/01 11:31:44;;;;;;;10.40;7.65;;;1152.70;409.60;;;;;;5132416;27;20353;-74
2021/03/01 11:34:10;;;;;;;14.07;11.27;;;1177.70;409.60;;;;;;5132536;27;20035;-74
2021/03/01 11:36:37;;;;;;;10.90;8.07;;;1152.50;409.60;;;;;;5126479;27;20060;-74
2021/03/01 11:39:04;;;;;;;14.98;10.63;;;1126.70;460.80;;;;;;5129957;27;20145;-79
2021/03/01 11:41:30;;;;;;;11.90;8.65;;;1101.00;435.20;;;;;;5131465;27;20023;-81
2021/03/01 11:43:55;;;;;;;14.38;11.38;;;1101.50;435.20;;;;;;5130765;27;20083;-74
2021/03/01 11:46:21;;;;;;;15.25;11.43;;;1126.50;435.20;;;;;;5134234;27;20491;-73
2021/03/01 11:48:48;;;;;;;14.13;10.55;;;1126.60;435.20;;;;;;5131853;27;20360;-79
2021/03/01 11:51:14;;;;;;;13.15;10.15;;;1101.30;435.20;;;;;;5101769;27;20477;-73
2021/03/01 11:53:41;;;;;;;12.82;9.55;;;1101.10;435.20;;;;;;5129135;27;20022;-77
2021/03/01 11:56:07;;;;;;;13.43;9.95;;;1101.10;435.20;;;;;;5130255;27;20039;-72
2021/03/01 11:58:36;;;;;;;13.20;9.15;;;1075.70;435.20;;;;;;5129177;27;20059;-72
2021/03/01 12:01:02;;;;;;;11.23;7.45;;;1100.80;435.20;;;;;;5119825;27;20023;-72
2021/03/01 12:03:28;;;;;;;11.18;7.50;;;1101.30;435.20;;;;;;5129778;27;20039;-75
2021/03/01 12:05:54;;;;;;;14.85;10.27;;;1101.00;435.20;;;;;;5130050;27;20503;-76
2021/03/01 12:08:19;;;;;;;16.20;11.02;;;1101.60;435.20;;;;;;5132653;27;20035;-77
2021/03/01 12:10:45;;;;;;;22.60;17.45;;;1101.60;409.60;;;;;;5130945;27;20457;-72
2021/03/01 12:13:11;;;;;;;16.58;12.77;;;1076.10;409.60;;;;;;5130639;27;20025;-70